createdAt,value
2018-06-15T00:02:28.377Z,99.90
2018-06-15T00:04:56.645Z,99.90
2018-06-15T00:07:24.970Z,99.90
2018-06-15T00:09:53.204Z,99.90
2018-06-15T00:12:21.426Z,99.90
2018-06-15T00:14:49.694Z,99.90
2018-06-15T00:17:17.959Z,99.90
2018-06-15T00:22:13.916Z,99.90
2018-06-15T00:24:42.199Z,99.90
2018-06-15T00:27:10.403Z,99.90
2018-06-15T00:29:38.611Z,99.90
2018-06-15T00:32:06.835Z,99.90
2018-06-15T00:34:35.110Z,99.90
2018-06-15T00:37:03.372Z,99.90
2018-06-15T00:39:31.640Z,99.90
2018-06-15T00:41:59.890Z,99.90
2018-06-15T00:44:28.158Z,99.90
2018-06-15T00:46:56.403Z,99.90
2018-06-15T00:49:24.672Z,99.90
2018-06-15T00:51:52.884Z,99.90
2018-06-15T00:54:21.131Z,99.90
2018-06-15T00:56:54.774Z,99.90
2018-06-15T00:59:23.030Z,99.90
2018-06-15T01:01:51.254Z,99.90
2018-06-15T01:04:19.451Z,99.90
2018-06-15T01:06:47.669Z,99.90
2018-06-15T01:09:15.985Z,99.90
2018-06-15T01:11:44.307Z,99.90
2018-06-15T01:14:12.655Z,99.90
2018-06-15T01:16:40.871Z,99.90
2018-06-15T01:19:09.082Z,99.90
2018-06-15T01:21:37.306Z,99.90
2018-06-15T01:24:05.736Z,99.90
2018-06-15T01:26:33.958Z,99.90
2018-06-15T01:29:02.239Z,99.90
2018-06-15T01:31:30.443Z,99.90
2018-06-15T01:36:26.390Z,99.90
2018-06-15T01:38:54.651Z,99.90
2018-06-15T01:43:50.583Z,99.90
2018-06-15T01:46:18.754Z,99.90
2018-06-15T01:48:47.007Z,99.90
2018-06-15T01:51:15.216Z,99.90
2018-06-15T01:53:43.483Z,99.90
2018-06-15T01:56:11.725Z,99.90
2018-06-15T01:58:39.979Z,99.90
2018-06-15T02:01:08.257Z,99.90
2018-06-15T02:03:36.511Z,99.90
2018-06-15T02:06:04.758Z,99.90
2018-06-15T02:08:32.950Z,99.90
2018-06-15T02:11:01.183Z,99.90
2018-06-15T02:13:29.456Z,99.90
2018-06-15T02:15:57.712Z,99.90
2018-06-15T02:18:25.974Z,99.90
2018-06-15T02:20:54.194Z,99.90
2018-06-15T02:23:22.341Z,99.90
2018-06-15T02:25:50.577Z,99.90
2018-06-15T02:28:18.783Z,99.90
2018-06-15T02:30:46.977Z,99.90
2018-06-15T02:33:15.208Z,99.90
2018-06-15T02:35:43.480Z,99.90
2018-06-15T02:38:11.726Z,99.90
2018-06-15T02:40:40.065Z,99.90
2018-06-15T02:43:08.326Z,99.90
2018-06-15T02:45:36.591Z,99.90
2018-06-15T02:48:04.796Z,99.90
2018-06-15T02:50:33.153Z,99.90
2018-06-15T02:53:01.407Z,99.90
2018-06-15T02:57:57.408Z,99.90
2018-06-15T03:00:25.632Z,99.90
2018-06-15T03:05:21.569Z,99.90
2018-06-15T03:07:49.758Z,99.90
2018-06-15T03:10:18.013Z,99.90
2018-06-15T03:12:46.226Z,99.90
2018-06-15T03:15:14.507Z,99.90
2018-06-15T03:17:42.765Z,99.90
2018-06-15T03:20:10.958Z,99.90
2018-06-15T03:22:39.158Z,99.90
2018-06-15T03:25:07.516Z,99.90
2018-06-15T03:27:35.759Z,99.90
2018-06-15T03:32:52.982Z,99.90
2018-06-15T03:35:21.156Z,99.90
2018-06-15T03:37:49.405Z,99.90
2018-06-15T03:40:17.663Z,99.90
2018-06-15T03:42:45.994Z,99.90
2018-06-15T03:45:14.187Z,99.90
2018-06-15T03:47:42.470Z,99.90
2018-06-15T03:50:10.775Z,99.90
2018-06-15T03:52:39.035Z,99.90
2018-06-15T03:55:07.424Z,99.90
2018-06-15T03:57:35.687Z,99.90
2018-06-15T04:00:04.030Z,99.90
2018-06-15T04:02:32.282Z,99.90
2018-06-15T04:05:00.552Z,99.90
2018-06-15T04:07:28.814Z,99.90
2018-06-15T04:09:57.183Z,99.90
2018-06-15T04:12:25.542Z,99.90
2018-06-15T04:14:53.863Z,99.90
2018-06-15T04:17:22.113Z,99.90
2018-06-15T04:19:50.320Z,99.90
2018-06-15T04:22:18.707Z,99.90
2018-06-15T04:24:47.010Z,99.90
2018-06-15T04:27:15.279Z,99.90
2018-06-15T04:29:43.423Z,99.90
2018-06-15T04:32:11.688Z,99.90
2018-06-15T04:34:39.850Z,99.90
2018-06-15T04:37:08.004Z,99.90
2018-06-15T04:39:36.223Z,99.90
2018-06-15T04:42:04.490Z,99.90
2018-06-15T04:44:32.734Z,99.90
2018-06-15T04:47:00.960Z,99.90
2018-06-15T04:49:29.162Z,99.90
2018-06-15T04:51:57.391Z,99.90
2018-06-15T04:54:25.575Z,99.90
2018-06-15T04:56:53.859Z,99.90
2018-06-15T04:59:22.128Z,99.90
2018-06-15T05:01:50.343Z,99.90
2018-06-15T05:04:18.647Z,99.90
2018-06-15T05:06:46.906Z,99.90
2018-06-15T05:09:15.152Z,99.90
2018-06-15T05:11:43.463Z,99.90
2018-06-15T05:14:11.659Z,99.90
2018-06-15T05:16:39.918Z,99.90
2018-06-15T05:19:08.130Z,99.90
2018-06-15T05:21:36.356Z,99.90
2018-06-15T05:24:04.551Z,99.90
2018-06-15T05:26:32.789Z,99.90
2018-06-15T05:29:00.968Z,99.90
2018-06-15T05:31:29.219Z,99.90
2018-06-15T05:33:57.461Z,99.90
2018-06-15T05:36:25.707Z,99.90
2018-06-15T05:38:53.932Z,99.90
2018-06-15T05:41:22.114Z,99.90
2018-06-15T05:43:50.389Z,99.90
2018-06-15T05:46:18.614Z,99.90
2018-06-15T05:48:46.838Z,99.90
2018-06-15T05:51:15.075Z,99.90
2018-06-15T05:53:43.334Z,99.90
2018-06-15T05:56:11.535Z,99.90
2018-06-15T05:58:39.756Z,99.90
2018-06-15T06:01:07.962Z,99.90
2018-06-15T06:03:36.302Z,99.90
2018-06-15T06:06:04.565Z,99.90
2018-06-15T06:08:32.787Z,99.90
2018-06-15T06:11:01.017Z,99.90
2018-06-15T06:13:29.225Z,99.90
2018-06-15T06:15:57.575Z,99.90
2018-06-15T06:18:25.850Z,99.90
2018-06-15T06:20:54.055Z,99.90
2018-06-15T06:23:22.295Z,99.90
2018-06-15T06:26:01.754Z,99.90
2018-06-15T06:28:30.063Z,99.90
2018-06-15T06:30:58.432Z,99.90
2018-06-15T06:33:26.704Z,99.90
2018-06-15T06:35:54.937Z,99.90
2018-06-15T06:38:23.254Z,99.90
2018-06-15T06:40:51.562Z,99.90
2018-06-15T06:43:19.788Z,99.90
2018-06-15T06:45:48.155Z,99.90
2018-06-15T06:48:16.639Z,99.90
2018-06-15T06:50:44.790Z,99.90
2018-06-15T06:53:13.062Z,99.90
2018-06-15T06:55:54.783Z,99.90
2018-06-15T06:58:23.044Z,99.90
2018-06-15T07:00:51.339Z,99.90
2018-06-15T07:03:19.624Z,99.90
2018-06-15T07:05:48.091Z,99.90
2018-06-15T07:08:16.462Z,99.90
2018-06-15T07:10:44.722Z,99.90
2018-06-15T07:13:13.034Z,99.90
2018-06-15T07:15:41.299Z,99.90
2018-06-15T07:18:09.537Z,99.90
2018-06-15T07:20:37.732Z,99.90
2018-06-15T07:23:05.960Z,99.90
2018-06-15T07:25:34.204Z,99.90
2018-06-15T07:28:02.443Z,99.90
2018-06-15T07:30:30.614Z,99.90
2018-06-15T07:32:58.911Z,99.90
2018-06-15T07:35:27.210Z,99.90
2018-06-15T07:37:55.399Z,99.90
2018-06-15T07:40:23.594Z,99.90
2018-06-15T07:42:51.846Z,99.90
2018-06-15T07:45:20.134Z,99.90
2018-06-15T07:47:48.357Z,99.90
2018-06-15T07:50:16.585Z,99.90
2018-06-15T07:52:44.810Z,99.90
2018-06-15T07:55:13.025Z,99.90
2018-06-15T07:57:41.263Z,99.90
2018-06-15T08:00:09.427Z,99.90
2018-06-15T08:02:37.778Z,99.90
2018-06-15T08:05:06.091Z,99.90
2018-06-15T08:07:34.476Z,99.90
2018-06-15T08:10:02.834Z,99.90
2018-06-15T08:12:31.452Z,99.90
2018-06-15T08:14:59.637Z,99.90
2018-06-15T08:17:27.791Z,99.90
2018-06-15T08:19:56.055Z,99.90
2018-06-15T08:22:24.283Z,99.90
2018-06-15T08:24:52.553Z,99.90
2018-06-15T08:27:20.727Z,99.90
2018-06-15T08:29:48.905Z,99.90
2018-06-15T08:32:17.094Z,99.90
2018-06-15T08:34:45.350Z,99.90
2018-06-15T08:37:13.555Z,99.90
2018-06-15T08:39:41.792Z,99.90
2018-06-15T08:42:10.030Z,99.90
2018-06-15T08:44:38.330Z,99.90
2018-06-15T08:47:06.544Z,99.90
2018-06-15T08:49:34.808Z,99.90
2018-06-15T08:52:03.047Z,99.90
2018-06-15T08:54:31.230Z,99.90
2018-06-15T08:56:59.441Z,99.90
2018-06-15T08:59:27.570Z,99.90
2018-06-15T09:01:55.798Z,99.90
2018-06-15T09:04:24.083Z,99.90
2018-06-15T09:06:58.936Z,99.90
2018-06-15T09:09:42.656Z,99.90
2018-06-15T09:12:10.955Z,99.90
2018-06-15T09:14:39.146Z,99.90
2018-06-15T09:17:07.322Z,99.90
2018-06-15T09:19:35.600Z,99.90
2018-06-15T09:22:03.777Z,99.90
2018-06-15T09:24:31.978Z,99.90
2018-06-15T09:27:00.247Z,99.90
2018-06-15T09:29:28.498Z,99.90
2018-06-15T09:31:56.729Z,99.90
2018-06-15T09:34:25.099Z,99.90
2018-06-15T09:36:53.404Z,99.90
2018-06-15T09:39:21.723Z,99.90
2018-06-15T09:41:49.938Z,99.90
2018-06-15T09:44:18.086Z,99.90
2018-06-15T09:46:46.339Z,99.90
2018-06-15T09:49:14.562Z,99.90
2018-06-15T09:51:42.866Z,99.90
2018-06-15T09:54:11.122Z,99.90
2018-06-15T09:56:39.366Z,99.90
2018-06-15T09:59:07.543Z,99.90
2018-06-15T10:01:35.694Z,99.90
2018-06-15T10:04:03.918Z,99.90
2018-06-15T10:06:32.250Z,99.90
2018-06-15T10:09:00.522Z,99.90
2018-06-15T10:11:28.710Z,99.80
2018-06-15T10:13:57.019Z,99.90
2018-06-15T10:16:25.459Z,99.90
2018-06-15T10:18:53.825Z,99.90
2018-06-15T10:21:22.102Z,99.90
2018-06-15T10:23:50.441Z,99.90
2018-06-15T10:26:18.657Z,99.40
2018-06-15T10:28:46.989Z,99.00
2018-06-15T10:33:42.858Z,97.80
2018-06-15T10:36:11.043Z,98.30
2018-06-15T10:38:39.234Z,99.20
2018-06-15T10:41:07.471Z,99.90
2018-06-15T10:43:35.738Z,99.90
2018-06-15T10:46:03.955Z,99.90
2018-06-15T10:48:32.206Z,99.90
2018-06-15T10:51:00.581Z,97.60
2018-06-15T10:53:28.780Z,99.50
2018-06-15T10:55:57.058Z,96.30
2018-06-15T10:58:25.323Z,98.80
2018-06-15T11:00:53.542Z,97.10
2018-06-15T11:03:21.759Z,96.20
2018-06-15T11:05:49.891Z,95.60
2018-06-15T11:08:18.210Z,99.50
2018-06-15T11:10:46.403Z,97.20
2018-06-15T11:13:14.613Z,96.90
2018-06-15T11:15:42.906Z,95.30
2018-06-15T11:18:11.111Z,96.30
2018-06-15T11:20:39.258Z,93.30
2018-06-15T11:23:07.455Z,96.80
2018-06-15T11:25:35.591Z,89.90
2018-06-15T11:28:03.859Z,89.80
2018-06-15T11:30:32.102Z,90.60
2018-06-15T11:33:00.354Z,91.40
2018-06-15T11:35:28.564Z,91.20
2018-06-15T11:37:56.750Z,92.20
2018-06-15T11:40:24.969Z,90.20
2018-06-15T11:42:53.142Z,87.90
2018-06-15T11:45:21.358Z,90.60
2018-06-15T11:47:49.646Z,92.60
2018-06-15T11:50:17.881Z,87.80
2018-06-15T11:52:55.682Z,86.30
2018-06-15T11:55:23.883Z,88.10
2018-06-15T11:57:52.158Z,92.60
2018-06-15T12:00:20.442Z,90.40
2018-06-15T12:02:48.699Z,85.30
2018-06-15T12:05:16.894Z,87.10
2018-06-15T12:07:45.154Z,87.50
2018-06-15T12:10:13.360Z,89.50
2018-06-15T12:12:41.682Z,83.70
2018-06-15T12:15:09.964Z,89.10
2018-06-15T12:17:38.179Z,87.40
2018-06-15T12:20:06.415Z,86.20
2018-06-15T12:22:34.585Z,87.10
2018-06-15T12:25:02.850Z,81.90
2018-06-15T12:27:31.127Z,85.80
2018-06-15T12:29:59.343Z,90.30
2018-06-15T12:32:27.589Z,88.90
2018-06-15T12:34:55.790Z,89.80
2018-06-15T12:37:24.035Z,83.10
2018-06-15T12:40:00.084Z,86.00
2018-06-15T12:42:28.305Z,84.70
2018-06-15T12:44:56.483Z,80.80
2018-06-15T12:47:24.726Z,83.20
2018-06-15T12:49:52.879Z,86.00
2018-06-15T12:52:21.023Z,86.00
2018-06-15T12:54:49.495Z,86.90
2018-06-15T12:57:17.686Z,85.00
2018-06-15T12:59:46.053Z,83.70
2018-06-15T13:02:14.289Z,84.00
2018-06-15T13:04:42.674Z,82.30
2018-06-15T13:07:10.883Z,79.60
2018-06-15T13:09:55.654Z,80.50
2018-06-15T13:12:23.842Z,83.70
2018-06-15T13:14:52.054Z,83.40
2018-06-15T13:17:20.241Z,80.40
2018-06-15T13:19:48.536Z,83.90
2018-06-15T13:22:16.795Z,81.60
2018-06-15T13:24:45.001Z,82.30
2018-06-15T13:27:13.164Z,84.80
2018-06-15T13:29:41.418Z,82.40
2018-06-15T13:32:09.653Z,82.70
2018-06-15T13:34:37.922Z,83.60
2018-06-15T13:37:06.250Z,85.00
2018-06-15T13:39:34.475Z,85.60
2018-06-15T13:42:04.771Z,82.00
2018-06-15T13:44:33.406Z,81.60
2018-06-15T13:47:02.132Z,82.10
2018-06-15T13:49:32.456Z,84.60
2018-06-15T13:52:00.644Z,83.00
2018-06-15T13:54:28.830Z,82.90
2018-06-15T13:56:57.043Z,83.30
2018-06-15T13:59:25.229Z,84.40
2018-06-15T14:01:53.450Z,83.80
2018-06-15T14:04:21.644Z,84.10
2018-06-15T14:06:49.892Z,83.20
2018-06-15T14:09:18.114Z,81.00
2018-06-15T14:11:46.357Z,82.60
2018-06-15T14:14:14.619Z,83.20
2018-06-15T14:16:43.036Z,83.30
2018-06-15T14:19:11.227Z,85.40
2018-06-15T14:21:39.446Z,82.30
2018-06-15T14:24:07.762Z,81.70
2018-06-15T14:26:36.022Z,82.50
2018-06-15T14:29:04.241Z,84.00
2018-06-15T14:31:32.416Z,85.10
2018-06-15T14:34:00.675Z,84.10
2018-06-15T14:36:28.937Z,82.70
2018-06-15T14:38:57.127Z,81.90
2018-06-15T14:41:25.415Z,82.30
2018-06-15T14:43:53.736Z,82.70
2018-06-15T14:46:22.000Z,83.80
2018-06-15T14:48:50.218Z,82.70
2018-06-15T14:51:18.477Z,82.60
2018-06-15T14:53:46.686Z,82.50
2018-06-15T14:56:15.016Z,82.30
2018-06-15T14:58:43.243Z,83.60
2018-06-15T15:01:11.451Z,84.20
2018-06-15T15:03:39.646Z,83.20
2018-06-15T15:06:08.891Z,84.20
2018-06-15T15:08:37.059Z,83.60
2018-06-15T15:11:05.279Z,85.30
2018-06-15T15:13:33.436Z,85.50
2018-06-15T15:16:01.682Z,85.70
2018-06-15T15:18:29.859Z,86.90
2018-06-15T15:20:58.150Z,87.20
2018-06-15T15:23:26.386Z,87.10
2018-06-15T15:25:54.607Z,88.50
2018-06-15T15:28:23.021Z,88.00
2018-06-15T15:30:51.215Z,89.90
2018-06-15T15:35:11.849Z,88.20
2018-06-15T15:37:39.910Z,88.50
2018-06-15T15:40:07.985Z,90.20
2018-06-15T15:42:36.046Z,89.20
2018-06-15T15:45:04.193Z,88.70
2018-06-15T15:47:32.290Z,87.90
2018-06-15T15:52:27.935Z,89.90
2018-06-15T15:54:55.969Z,90.00
2018-06-15T15:57:24.217Z,89.80
2018-06-15T15:59:52.406Z,89.20
2018-06-15T16:02:20.466Z,90.20
2018-06-15T16:04:48.511Z,88.80
2018-06-15T16:07:16.627Z,88.10
2018-06-15T16:09:44.705Z,89.10
2018-06-15T16:12:12.834Z,88.70
2018-06-15T16:14:40.925Z,90.10
2018-06-15T16:17:08.986Z,89.30
2018-06-15T16:19:37.029Z,88.40
2018-06-15T16:22:05.229Z,89.90
2018-06-15T16:24:33.367Z,89.70
2018-06-15T16:27:01.474Z,87.30
2018-06-15T16:29:29.544Z,88.20
2018-06-15T16:31:57.627Z,90.10
2018-06-15T16:34:25.676Z,91.30
2018-06-15T16:36:53.797Z,91.40
2018-06-15T16:39:21.907Z,91.40
2018-06-15T16:41:50.114Z,92.30
2018-06-15T16:44:18.217Z,91.90
2018-06-15T16:46:46.309Z,92.70
2018-06-15T16:49:14.357Z,93.90
2018-06-15T16:51:42.418Z,94.40
2018-06-15T16:54:10.466Z,96.10
2018-06-15T16:56:38.563Z,97.30
2018-06-15T16:59:06.674Z,98.80
2018-06-15T17:01:34.709Z,99.40
2018-06-15T17:04:02.784Z,99.90
2018-06-15T17:06:30.885Z,99.90
2018-06-15T17:08:59.038Z,99.90
2018-06-15T17:11:27.087Z,99.90
2018-06-15T17:13:55.226Z,99.90
2018-06-15T17:16:23.274Z,99.90
2018-06-15T17:18:51.362Z,99.90
2018-06-15T17:21:19.413Z,99.90
2018-06-15T17:23:47.526Z,99.90
2018-06-15T17:26:15.606Z,99.90
2018-06-15T17:28:43.709Z,99.90
2018-06-15T17:31:11.751Z,99.90
2018-06-15T17:33:39.858Z,99.90
2018-06-15T17:36:07.924Z,99.90
2018-06-15T17:38:36.017Z,99.90
2018-06-15T17:41:04.093Z,99.90
2018-06-15T17:43:33.161Z,99.90
2018-06-15T17:46:01.199Z,99.90
2018-06-15T17:48:29.333Z,99.90
2018-06-15T17:50:58.422Z,99.90
2018-06-15T17:53:26.518Z,99.90
2018-06-15T17:55:54.593Z,99.90
2018-06-15T17:58:22.671Z,99.90
2018-06-15T18:00:50.738Z,99.90
2018-06-15T18:03:24.217Z,99.90
2018-06-15T18:05:52.262Z,99.90
2018-06-15T18:11:00.027Z,99.90
2018-06-15T18:13:28.157Z,99.90
2018-06-15T18:15:56.191Z,99.90
2018-06-15T18:18:24.281Z,99.90
2018-06-15T18:20:55.655Z,99.90
2018-06-15T18:23:34.406Z,99.90
2018-06-15T18:26:05.881Z,99.90
2018-06-15T18:28:33.973Z,99.90
2018-06-15T18:31:02.001Z,99.90
2018-06-15T18:33:30.089Z,99.90
2018-06-15T18:35:58.175Z,99.90
2018-06-15T18:38:26.247Z,99.90
2018-06-15T18:40:54.305Z,99.90
2018-06-15T18:43:22.389Z,99.90
2018-06-15T18:45:50.429Z,99.90
2018-06-15T18:48:19.625Z,99.90
2018-06-15T18:50:47.794Z,99.90
2018-06-15T18:53:15.897Z,99.90
2018-06-15T18:55:44.511Z,99.90
2018-06-15T18:58:12.614Z,99.90
2018-06-15T19:00:40.716Z,99.90
2018-06-15T19:03:08.798Z,99.90
2018-06-15T19:05:36.890Z,99.90
2018-06-15T19:08:05.049Z,99.90
2018-06-15T19:10:33.079Z,99.90
2018-06-15T19:13:13.480Z,99.90
2018-06-15T19:15:41.563Z,99.90
2018-06-15T19:18:09.665Z,99.90
2018-06-15T19:20:37.790Z,99.90
2018-06-15T19:23:05.946Z,99.90
2018-06-15T19:25:34.051Z,99.90
2018-06-15T19:28:02.186Z,99.90
2018-06-15T19:30:33.885Z,99.90
2018-06-15T19:33:01.970Z,99.90
2018-06-15T19:35:30.103Z,99.90
2018-06-15T19:37:58.153Z,99.90
2018-06-15T19:40:26.249Z,99.90
2018-06-15T19:43:01.196Z,99.90
2018-06-15T19:45:29.286Z,99.90
2018-06-15T19:47:57.353Z,99.90
2018-06-15T19:50:25.455Z,99.90
2018-06-15T19:52:53.537Z,99.90
2018-06-15T19:55:21.642Z,99.90
2018-06-15T19:57:49.761Z,99.90
2018-06-15T20:00:19.898Z,99.90
2018-06-15T20:02:47.991Z,99.90
2018-06-15T20:05:16.076Z,99.90
2018-06-15T20:07:48.823Z,99.90
2018-06-15T20:10:20.241Z,99.90
2018-06-15T20:12:48.334Z,99.90
2018-06-15T20:15:22.366Z,99.90
2018-06-15T20:17:50.436Z,99.90
2018-06-15T20:20:18.502Z,99.90
2018-06-15T20:22:47.636Z,99.90
2018-06-15T20:25:15.749Z,99.90
2018-06-15T20:27:43.778Z,99.90
2018-06-15T20:30:11.901Z,99.90
2018-06-15T20:32:39.976Z,99.90
2018-06-15T20:35:08.010Z,99.90
2018-06-15T20:37:36.093Z,99.90
2018-06-15T20:40:04.181Z,99.90
2018-06-15T20:42:32.282Z,99.90
2018-06-15T20:45:00.493Z,99.90
2018-06-15T20:47:28.559Z,99.90
2018-06-15T20:49:56.649Z,99.90
2018-06-15T20:52:24.755Z,99.90
2018-06-15T20:55:02.465Z,99.90
2018-06-15T20:57:30.705Z,99.90
2018-06-15T20:59:59.034Z,99.90
2018-06-15T21:02:27.278Z,99.90
2018-06-15T21:04:56.437Z,99.90
2018-06-15T21:07:24.730Z,99.90
2018-06-15T21:09:52.997Z,99.90
2018-06-15T21:12:21.259Z,99.90
2018-06-15T21:14:49.646Z,99.90
2018-06-15T21:17:17.878Z,99.90
2018-06-15T21:19:46.092Z,99.90
2018-06-15T21:22:14.291Z,99.90
2018-06-15T21:24:42.492Z,99.90
2018-06-15T21:27:17.492Z,99.90
2018-06-15T21:32:13.485Z,99.90
2018-06-15T21:34:41.726Z,99.90
2018-06-15T21:37:09.895Z,99.90
2018-06-15T21:39:38.121Z,99.90
2018-06-15T21:42:06.445Z,99.90
2018-06-15T21:44:34.735Z,99.90
2018-06-15T21:47:03.068Z,99.90
2018-06-15T21:49:31.332Z,99.90
2018-06-15T21:51:59.554Z,99.90
2018-06-15T21:54:27.866Z,99.90
2018-06-15T21:56:56.138Z,99.90
2018-06-15T21:59:24.315Z,99.90
2018-06-15T22:01:52.525Z,99.90
2018-06-15T22:04:20.856Z,99.90
2018-06-15T22:06:49.047Z,99.90
2018-06-15T22:09:17.314Z,99.90
2018-06-15T22:11:45.518Z,99.90
2018-06-15T22:14:16.035Z,99.90
2018-06-15T22:16:49.584Z,99.90
2018-06-15T22:19:18.495Z,99.90
2018-06-15T22:21:46.708Z,99.90
2018-06-15T22:24:14.936Z,99.90
2018-06-15T22:26:43.111Z,99.90
2018-06-15T22:29:11.323Z,99.90
2018-06-15T22:31:39.693Z,99.90
2018-06-15T22:34:07.990Z,99.90
2018-06-15T22:36:36.230Z,99.90
2018-06-15T22:39:06.595Z,99.90
2018-06-15T22:41:34.851Z,99.90
2018-06-15T22:44:03.128Z,99.90
2018-06-15T22:46:31.378Z,99.90
2018-06-15T22:48:59.686Z,99.90
2018-06-15T22:51:27.981Z,99.90
2018-06-15T22:53:56.275Z,99.90
2018-06-15T22:56:24.559Z,99.90
2018-06-15T22:58:52.953Z,99.90
2018-06-15T23:01:21.209Z,99.90
2018-06-15T23:03:49.511Z,99.90
2018-06-15T23:06:17.748Z,99.90
2018-06-15T23:08:46.021Z,99.90
2018-06-15T23:11:14.186Z,99.90
2018-06-15T23:13:42.281Z,99.90
2018-06-15T23:16:10.374Z,99.90
2018-06-15T23:18:38.516Z,99.90
2018-06-15T23:21:06.777Z,99.90
2018-06-15T23:23:35.022Z,99.90
2018-06-15T23:26:03.400Z,99.90
2018-06-15T23:28:31.734Z,99.90
2018-06-15T23:31:00.314Z,99.90
2018-06-15T23:33:28.536Z,99.90
2018-06-15T23:36:10.470Z,99.90
2018-06-15T23:38:38.722Z,99.90
2018-06-15T23:41:06.994Z,99.90
2018-06-15T23:43:35.238Z,99.90
2018-06-15T23:46:03.506Z,99.90
2018-06-15T23:48:31.716Z,99.90
2018-06-15T23:50:59.922Z,99.90
2018-06-15T23:53:28.066Z,99.90
2018-06-15T23:55:56.349Z,99.90
2018-06-15T23:58:24.503Z,99.90
